Time;durP1;ratioP1;P1;durP2;ratioP2;P2;SDS_P1;SDS_P2;PMS_P1;PMS_P2;Temp;Humidity;BMP_temperature;BMP_pressure;BME280_temperature;BME280_humidity;BME280_pressure;Samples;Min_cycle;Max_cycle;Signal;HPM_P1;HPM_P2
2021/01/13 00:00:08;;;;;;;1.98;0.95;;;21.40;27.50;;;;;;4987980;28;20030;-42
2021/01/13 00:02:34;;;;;;;3.15;1.25;;;21.40;27.50;;;;;;4984096;28;20046;-43
2021/01/13 00:05:00;;;;;;;1.73;0.82;;;21.40;27.60;;;;;;4984050;28;20030;-42
2021/01/13 00:07:26;;;;;;;2.65;1.10;;;21.40;27.50;;;;;;4989235;28;20035;-41
2021/01/13 00:09:51;;;;;;;2.00;1.13;;;21.40;27.50;;;;;;4978646;28;20027;-43
2021/01/13 00:12:17;;;;;;;3.35;1.10;;;21.40;27.50;;;;;;4980246;28;20043;-43
2021/01/13 00:14:43;;;;;;;2.65;1.17;;;21.40;27.50;;;;;;4987582;28;20035;-42
2021/01/13 00:17:10;;;;;;;2.33;1.13;;;21.30;27.50;;;;;;4988735;28;20053;-42
2021/01/13 00:19:37;;;;;;;2.45;1.13;;;21.30;27.50;;;;;;4994993;28;20089;-40
2021/01/13 00:22:03;;;;;;;3.38;1.15;;;21.30;27.50;;;;;;4986197;28;20125;-41
2021/01/13 00:24:30;;;;;;;1.60;1.00;;;21.30;27.80;;;;;;4994856;28;20022;-42
2021/01/13 00:26:57;;;;;;;3.13;1.20;;;21.30;28.00;;;;;;4991768;28;20093;-41
2021/01/13 00:29:22;;;;;;;2.85;1.38;;;21.30;28.20;;;;;;4991379;28;20041;-42
2021/01/13 00:31:48;;;;;;;1.73;0.90;;;21.30;28.30;;;;;;4995439;28;20109;-42
2021/01/13 00:34:15;;;;;;;2.63;1.17;;;21.30;28.40;;;;;;4995107;28;20117;-41
2021/01/13 00:36:41;;;;;;;2.90;1.10;;;21.30;28.50;;;;;;4996533;28;20041;-44
2021/01/13 00:39:07;;;;;;;2.53;1.10;;;21.30;28.60;;;;;;4992539;28;20335;-42
2021/01/13 00:41:38;;;;;;;2.40;1.13;;;21.20;28.70;;;;;;4977019;28;20058;-44
2021/01/13 00:44:04;;;;;;;2.53;1.23;;;21.20;28.70;;;;;;4985172;28;20126;-43
2021/01/13 00:46:40;;;;;;;2.85;1.10;;;21.20;28.80;;;;;;4993984;28;20125;-43
2021/01/13 00:49:07;;;;;;;2.67;0.93;;;21.20;28.80;;;;;;4996036;28;20422;-44
2021/01/13 00:51:42;;;;;;;4.55;1.70;;;21.20;28.90;;;;;;4994198;28;20097;-42
2021/01/13 00:54:10;;;;;;;1.90;1.00;;;21.20;28.90;;;;;;4995941;28;20074;-44
2021/01/13 00:56:43;;;;;;;2.58;1.05;;;21.20;29.00;;;;;;4990083;28;20041;-42
2021/01/13 00:59:13;;;;;;;2.38;1.08;;;21.20;29.10;;;;;;4984350;28;20022;-41
2021/01/13 01:01:43;;;;;;;3.72;1.30;;;21.20;29.10;;;;;;4993643;28;20430;-42
2021/01/13 01:04:10;;;;;;;3.15;0.98;;;21.20;29.20;;;;;;4996067;28;20030;-41
2021/01/13 01:06:36;;;;;;;2.47;1.00;;;21.20;29.30;;;;;;4993111;28;20045;-43
2021/01/13 01:09:05;;;;;;;1.80;1.00;;;21.20;29.30;;;;;;4990211;28;20034;-42
2021/01/13 01:11:33;;;;;;;2.35;1.10;;;21.20;29.30;;;;;;4993435;28;20038;-42
2021/01/13 01:13:59;;;;;;;2.00;0.93;;;21.20;29.30;;;;;;4995842;28;20049;-41
2021/01/13 01:16:29;;;;;;;1.75;0.70;;;21.20;29.40;;;;;;4986651;28;20073;-41
2021/01/13 01:18:55;;;;;;;3.13;1.00;;;21.20;29.40;;;;;;4990646;28;20042;-43
2021/01/13 01:21:21;;;;;;;2.28;1.17;;;21.20;29.40;;;;;;4994828;28;20377;-41
2021/01/13 01:23:47;;;;;;;2.60;0.93;;;21.10;29.30;;;;;;4993871;28;20023;-42
2021/01/13 01:26:12;;;;;;;3.28;0.80;;;21.20;29.40;;;;;;4986050;28;20030;-44
2021/01/13 01:28:38;;;;;;;2.22;0.98;;;21.10;29.40;;;;;;4995255;28;20421;-44
2021/01/13 01:31:04;;;;;;;1.90;0.77;;;21.20;29.40;;;;;;4983095;28;20040;-43
2021/01/13 01:33:30;;;;;;;2.40;1.10;;;21.10;29.40;;;;;;4980581;28;20129;-42
2021/01/13 01:35:55;;;;;;;2.22;0.93;;;21.10;29.40;;;;;;4994607;28;20404;-42
2021/01/13 01:38:21;;;;;;;2.08;0.88;;;21.10;29.50;;;;;;4979417;28;20456;-41
2021/01/13 01:40:47;;;;;;;2.00;0.80;;;21.10;29.50;;;;;;4995183;28;20065;-42
2021/01/13 01:43:12;;;;;;;1.52;0.82;;;21.10;29.50;;;;;;4976799;28;20038;-41
2021/01/13 01:45:41;;;;;;;2.35;0.80;;;21.10;29.50;;;;;;4975840;28;20101;-43
2021/01/13 01:48:14;;;;;;;1.50;0.70;;;21.10;29.50;;;;;;4987302;28;20178;-43
2021/01/13 01:50:43;;;;;;;1.95;1.02;;;21.10;29.50;;;;;;4984858;28;20066;-44
2021/01/13 01:53:48;;;;;;;1.17;0.70;;;21.10;29.50;;;;;;4976187;28;20089;-45
2021/01/13 01:56:27;;;;;;;2.03;0.82;;;21.10;29.50;;;;;;4969093;28;20046;-42
2021/01/13 01:59:11;;;;;;;2.10;0.93;;;21.10;29.60;;;;;;4994859;28;20398;-42
2021/01/13 02:01:39;;;;;;;1.93;0.80;;;21.10;29.60;;;;;;4990352;28;20034;-42
2021/01/13 02:04:43;;;;;;;2.00;0.85;;;21.00;29.60;;;;;;4982991;28;20792;-42
2021/01/13 02:07:09;;;;;;;2.30;1.02;;;21.00;29.70;;;;;;4933614;29;20031;-43
2021/01/13 02:09:36;;;;;;;1.38;0.55;;;21.00;29.70;;;;;;4931055;29;20392;-41
2021/01/13 02:12:12;;;;;;;2.33;0.88;;;21.00;29.80;;;;;;4949947;28;20094;-42
2021/01/13 02:14:43;;;;;;;2.00;1.00;;;21.00;29.80;;;;;;4977512;28;20117;-41
2021/01/13 02:17:10;;;;;;;2.00;0.60;;;21.00;29.80;;;;;;4981369;28;20085;-44
2021/01/13 02:20:05;;;;;;;1.83;0.70;;;21.00;29.80;;;;;;4988428;28;20081;-42
2021/01/13 02:22:37;;;;;;;1.00;0.50;;;21.00;29.90;;;;;;4980695;28;20108;-42
2021/01/13 02:25:13;;;;;;;1.70;0.80;;;21.00;29.90;;;;;;4987095;28;20113;-43
2021/01/13 02:27:58;;;;;;;1.98;0.70;;;21.00;29.90;;;;;;4988148;28;20465;-44
2021/01/13 02:30:25;;;;;;;;;;;21.00;29.80;;;;;;4995349;28;20049;-41
2021/01/13 02:32:53;;;;;;;2.42;0.68;;;21.00;29.90;;;;;;4989950;28;20016;-41
2021/01/13 02:35:22;;;;;;;1.80;0.80;;;21.00;29.90;;;;;;4993091;28;20077;-44
2021/01/13 02:38:09;;;;;;;1.85;0.70;;;21.00;29.90;;;;;;4991666;28;20338;-43
2021/01/13 02:40:36;;;;;;;1.40;0.68;;;21.00;29.90;;;;;;4992616;28;20472;-44
2021/01/13 02:43:05;;;;;;;1.60;0.70;;;21.00;29.90;;;;;;4990095;28;20481;-41
2021/01/13 02:45:44;;;;;;;0.95;0.50;;;21.00;29.90;;;;;;4986971;28;20110;-42
2021/01/13 02:48:19;;;;;;;1.48;0.70;;;21.00;29.90;;;;;;4981512;28;20101;-41
2021/01/13 02:50:47;;;;;;;3.40;1.10;;;21.00;29.90;;;;;;4991846;28;20073;-45
2021/01/13 02:53:16;;;;;;;1.33;0.50;;;21.00;29.90;;;;;;4996286;28;20038;-44
2021/01/13 02:55:48;;;;;;;1.05;0.60;;;20.90;29.90;;;;;;4997558;28;20034;-42
2021/01/13 02:58:25;;;;;;;3.30;0.70;;;20.90;29.90;;;;;;4991126;28;20049;-42
2021/01/13 03:00:54;;;;;;;2.50;0.90;;;20.90;30.00;;;;;;4991948;28;20110;-40
2021/01/13 03:03:21;;;;;;;0.95;0.50;;;20.90;30.00;;;;;;4989687;28;20042;-40
2021/01/13 03:05:47;;;;;;;1.55;0.80;;;20.90;30.00;;;;;;4994350;28;20040;-40
2021/01/13 03:08:14;;;;;;;2.67;0.77;;;20.90;30.00;;;;;;4993828;28;20057;-40
2021/01/13 03:10:41;;;;;;;2.88;0.80;;;20.90;30.00;;;;;;4984254;28;20468;-44
2021/01/13 03:13:08;;;;;;;2.03;0.80;;;20.90;30.00;;;;;;4983644;28;20034;-43
2021/01/13 03:15:36;;;;;;;2.78;0.75;;;20.90;30.00;;;;;;4988299;28;20085;-46
2021/01/13 03:18:31;;;;;;;3.33;0.75;;;20.90;30.00;;;;;;4981424;28;20039;-42
2021/01/13 03:21:00;;;;;;;2.13;0.70;;;20.90;30.00;;;;;;4973394;28;20050;-41
2021/01/13 03:23:36;;;;;;;1.73;0.70;;;20.90;30.00;;;;;;4982881;28;20049;-41
2021/01/13 03:26:03;;;;;;;1.48;0.50;;;20.90;30.00;;;;;;4994255;28;20052;-44
2021/01/13 03:28:37;;;;;;;2.35;0.85;;;20.90;30.00;;;;;;4991125;28;20472;-42
2021/01/13 03:31:04;;;;;;;1.20;0.60;;;20.90;30.00;;;;;;4978350;28;20034;-43
2021/01/13 03:33:54;;;;;;;1.98;0.95;;;20.90;30.00;;;;;;4969000;28;20105;-43
2021/01/13 03:36:58;;;;;;;2.03;0.60;;;20.90;30.00;;;;;;4996673;28;20113;-44
2021/01/13 03:39:31;;;;;;;2.58;0.77;;;20.90;30.00;;;;;;4975078;28;20054;-43
2021/01/13 03:42:10;;;;;;;3.50;0.70;;;20.90;30.00;;;;;;4982068;28;20040;-44
2021/01/13 03:44:38;;;;;;;2.03;0.68;;;20.90;30.00;;;;;;4986427;28;20062;-41
2021/01/13 03:47:19;;;;;;;2.22;0.80;;;20.90;30.00;;;;;;4979256;28;20498;-42
2021/01/13 03:50:13;;;;;;;2.30;0.68;;;20.80;30.00;;;;;;4988871;28;20433;-41
2021/01/13 03:52:50;;;;;;;2.33;0.70;;;20.80;30.00;;;;;;4991504;28;20114;-42
2021/01/13 03:55:17;;;;;;;1.38;0.70;;;20.80;30.00;;;;;;4977619;28;20027;-42
2021/01/13 03:57:57;;;;;;;2.00;0.65;;;20.80;30.00;;;;;;4978627;28;20430;-41
2021/01/13 04:00:35;;;;;;;2.50;0.70;;;20.80;30.00;;;;;;4993385;28;20382;-42
2021/01/13 04:03:22;;;;;;;1.38;0.60;;;20.80;30.00;;;;;;4978420;28;20049;-42
2021/01/13 04:06:07;;;;;;;1.63;0.60;;;20.80;30.00;;;;;;4992767;28;20350;-44
2021/01/13 04:08:43;;;;;;;1.70;0.70;;;20.80;30.00;;;;;;4996651;28;20042;-43
2021/01/13 04:11:10;;;;;;;2.40;0.77;;;20.80;30.00;;;;;;4979087;28;20041;-42
2021/01/13 04:13:36;;;;;;;1.65;0.60;;;20.80;30.00;;;;;;4980940;28;20050;-43
2021/01/13 04:16:03;;;;;;;1.60;0.50;;;20.80;30.10;;;;;;4983106;28;20018;-43
2021/01/13 04:18:29;;;;;;;1.95;0.90;;;20.80;30.10;;;;;;4982391;28;20050;-42
2021/01/13 04:20:56;;;;;;;2.22;0.52;;;20.80;30.20;;;;;;4978796;28;20034;-44
2021/01/13 04:23:22;;;;;;;1.63;0.63;;;20.80;30.20;;;;;;4989511;28;20089;-44
2021/01/13 04:25:49;;;;;;;2.15;0.60;;;20.80;30.20;;;;;;4988161;28;20148;-43
2021/01/13 04:28:15;;;;;;;1.83;0.52;;;20.80;30.20;;;;;;4994758;28;20029;-43
2021/01/13 04:30:42;;;;;;;2.33;0.77;;;20.80;30.30;;;;;;4995640;28;20245;-43
2021/01/13 04:33:08;;;;;;;1.50;0.60;;;20.80;30.30;;;;;;4996465;28;20042;-43
2021/01/13 04:35:37;;;;;;;2.40;0.73;;;20.70;30.30;;;;;;4988718;28;20046;-43
2021/01/13 04:38:03;;;;;;;1.75;0.50;;;20.70;30.30;;;;;;4986185;28;20034;-42
2021/01/13 04:40:38;;;;;;;1.83;0.50;;;20.70;30.30;;;;;;4989653;28;20031;-41
2021/01/13 04:43:05;;;;;;;;;;;20.80;30.40;;;;;;4983502;28;20069;-41
2021/01/13 04:45:37;;;;;;;1.30;0.50;;;20.70;30.40;;;;;;4981292;28;19910;-42
2021/01/13 04:48:08;;;;;;;1.27;0.50;;;20.70;30.50;;;;;;4994785;28;20342;-40
2021/01/13 04:50:45;;;;;;;1.13;0.50;;;20.70;30.60;;;;;;4994047;28;20071;-42
2021/01/13 04:53:15;;;;;;;;;;;20.70;30.60;;;;;;4996228;28;20105;-40
2021/01/13 04:55:54;;;;;;;1.30;0.52;;;20.70;30.60;;;;;;4982427;28;19976;-41
2021/01/13 04:58:20;;;;;;;1.70;0.60;;;20.70;30.60;;;;;;4987019;28;20393;-41
2021/01/13 05:01:23;;;;;;;1.42;0.52;;;20.70;30.60;;;;;;4984478;28;20030;-41
2021/01/13 05:04:07;;;;;;;1.38;0.60;;;20.70;30.60;;;;;;4995957;28;20409;-40
2021/01/13 05:06:48;;;;;;;0.80;0.40;;;20.70;30.70;;;;;;4976614;28;20049;-42
2021/01/13 05:09:16;;;;;;;1.95;0.70;;;20.60;30.70;;;;;;4992736;28;20030;-43
2021/01/13 05:11:47;;;;;;;2.15;0.80;;;20.60;30.70;;;;;;4994203;28;20062;-42
2021/01/13 05:14:14;;;;;;;2.17;0.52;;;20.70;30.80;;;;;;4979314;28;20433;-42
2021/01/13 05:17:01;;;;;;;1.60;0.52;;;20.60;31.30;;;;;;4983868;28;20035;-43
2021/01/13 05:19:30;;;;;;;1.02;0.40;;;20.70;30.80;;;;;;4995102;28;20030;-42
2021/01/13 05:21:57;;;;;;;1.52;0.70;;;20.60;30.80;;;;;;4993103;28;20042;-42
2021/01/13 05:24:25;;;;;;;0.60;0.40;;;20.60;30.80;;;;;;4995619;28;20030;-41
2021/01/13 05:27:32;;;;;;;1.27;0.43;;;20.60;30.80;;;;;;4983202;28;20034;-45
2021/01/13 05:30:01;;;;;;;1.52;0.50;;;20.60;30.70;;;;;;4995079;28;20066;-43
2021/01/13 05:32:27;;;;;;;1.60;0.40;;;20.60;30.80;;;;;;4989052;28;20085;-40
2021/01/13 05:35:00;;;;;;;1.67;0.60;;;20.60;30.80;;;;;;4976026;28;20038;-41
2021/01/13 05:37:40;;;;;;;1.27;0.50;;;20.60;30.80;;;;;;4985215;28;20037;-44
2021/01/13 05:40:07;;;;;;;3.50;0.60;;;20.60;30.80;;;;;;4994778;28;20026;-41
2021/01/13 05:42:33;;;;;;;1.42;0.52;;;20.60;30.80;;;;;;4988799;28;20481;-42
2021/01/13 05:45:00;;;;;;;1.73;0.60;;;20.60;30.80;;;;;;4990742;28;20038;-41
2021/01/13 05:48:00;;;;;;;1.25;0.43;;;20.60;30.80;;;;;;4989523;28;20046;-42
2021/01/13 05:50:26;;;;;;;1.50;0.50;;;20.60;30.80;;;;;;4984926;28;20039;-42
2021/01/13 05:52:54;;;;;;;2.22;0.60;;;20.60;30.80;;;;;;4992299;28;20160;-42
2021/01/13 05:55:22;;;;;;;1.15;0.50;;;20.60;30.80;;;;;;4993513;28;20049;-42
2021/01/13 05:57:56;;;;;;;1.52;0.60;;;20.60;30.80;;;;;;4979030;28;20039;-40
2021/01/13 06:00:26;;;;;;;1.55;0.47;;;20.60;30.90;;;;;;4992443;28;20089;-42
2021/01/13 06:03:01;;;;;;;1.38;0.68;;;20.60;30.90;;;;;;4967077;28;20113;-41
2021/01/13 06:05:29;;;;;;;3.13;0.60;;;20.60;30.90;;;;;;4975543;28;20062;-41
2021/01/13 06:08:02;;;;;;;1.80;0.50;;;20.60;30.90;;;;;;4988623;28;20092;-43
2021/01/13 06:10:34;;;;;;;2.60;0.82;;;20.60;30.90;;;;;;4989238;28;20038;-42
2021/01/13 06:13:03;;;;;;;1.23;0.60;;;20.50;30.80;;;;;;4995038;28;20362;-42
2021/01/13 06:15:30;;;;;;;1.13;0.40;;;20.60;30.90;;;;;;4989712;28;20093;-47
2021/01/13 06:17:58;;;;;;;0.80;0.40;;;20.50;30.80;;;;;;4972472;28;20058;-41
2021/01/13 06:20:26;;;;;;;1.60;0.40;;;20.50;30.80;;;;;;4979344;28;20121;-43
2021/01/13 06:22:53;;;;;;;3.42;0.57;;;20.50;30.80;;;;;;4996654;28;20358;-42
2021/01/13 06:25:30;;;;;;;1.90;0.65;;;20.50;30.90;;;;;;4996024;28;20034;-42
2021/01/13 06:28:11;;;;;;;1.48;0.60;;;20.50;30.90;;;;;;4998098;28;20049;-43
2021/01/13 06:30:42;;;;;;;1.58;0.60;;;20.50;30.90;;;;;;4990558;28;20051;-42
2021/01/13 06:33:10;;;;;;;1.35;0.50;;;20.50;30.90;;;;;;4998724;28;20053;-42
2021/01/13 06:35:41;;;;;;;1.05;0.40;;;20.50;30.90;;;;;;4990064;28;20468;-41
2021/01/13 06:38:20;;;;;;;2.45;0.50;;;20.50;30.90;;;;;;4994351;28;20034;-40
2021/01/13 06:40:58;;;;;;;2.45;0.77;;;20.50;30.90;;;;;;4995584;28;20030;-40
2021/01/13 06:43:24;;;;;;;1.50;0.60;;;20.50;30.90;;;;;;4996602;28;20064;-41
2021/01/13 06:45:49;;;;;;;2.00;0.70;;;20.50;30.90;;;;;;4974170;28;20165;-45
2021/01/13 06:48:25;;;;;;;2.50;0.77;;;20.50;30.90;;;;;;4989869;28;20030;-43
2021/01/13 06:50:58;;;;;;;2.85;1.00;;;20.50;30.90;;;;;;4979380;28;20078;-43
2021/01/13 06:53:33;;;;;;;1.92;0.70;;;20.50;30.90;;;;;;4988201;28;20057;-42
2021/01/13 06:56:17;;;;;;;;;;;20.50;30.90;;;;;;4991776;28;20362;-43
2021/01/13 06:58:57;;;;;;;2.80;0.80;;;20.40;30.80;;;;;;4996275;28;19910;-43
2021/01/13 07:01:23;;;;;;;2.85;0.80;;;20.40;30.80;;;;;;4981106;28;20039;-44
2021/01/13 07:04:04;;;;;;;3.83;0.93;;;20.40;30.80;;;;;;4997297;28;20026;-42
2021/01/13 07:06:31;;;;;;;3.22;1.00;;;20.40;30.80;;;;;;4997013;28;20495;-43
2021/01/13 07:08:57;;;;;;;3.55;0.93;;;20.40;30.80;;;;;;4987155;28;20030;-43
2021/01/13 07:11:25;;;;;;;2.97;0.90;;;20.40;30.80;;;;;;4995984;28;20092;-41
2021/01/13 07:13:53;;;;;;;3.90;1.20;;;20.40;30.80;;;;;;4979680;28;20347;-43
2021/01/13 07:16:25;;;;;;;5.75;1.02;;;20.40;30.80;;;;;;4980291;28;20035;-44
2021/01/13 07:18:52;;;;;;;3.30;1.00;;;20.40;30.80;;;;;;4994302;28;20491;-45
2021/01/13 07:21:18;;;;;;;3.95;1.13;;;20.40;30.80;;;;;;4984386;28;20030;-42
2021/01/13 07:23:45;;;;;;;4.35;0.90;;;20.40;30.80;;;;;;4978489;28;20046;-44
2021/01/13 07:26:12;;;;;;;6.47;1.02;;;20.40;30.80;;;;;;4987829;28;20497;-42
2021/01/13 07:28:39;;;;;;;4.18;1.20;;;20.40;30.80;;;;;;4997602;28;20041;-41
2021/01/13 07:31:07;;;;;;;3.60;1.17;;;20.40;30.70;;;;;;4985681;28;20037;-43
2021/01/13 07:33:41;;;;;;;3.42;1.00;;;20.40;30.70;;;;;;4989701;28;20057;-42
2021/01/13 07:36:13;;;;;;;4.07;1.52;;;20.40;30.80;;;;;;4996214;28;20062;-43
2021/01/13 07:38:43;;;;;;;4.38;1.30;;;20.30;30.80;;;;;;4994320;28;20050;-43
2021/01/13 07:41:10;;;;;;;4.97;1.30;;;20.30;31.00;;;;;;4991976;28;20026;-44
2021/01/13 07:43:40;;;;;;;3.70;1.23;;;20.30;31.10;;;;;;4996702;28;20471;-45
2021/01/13 07:46:25;;;;;;;4.57;1.45;;;20.40;31.40;;;;;;4993931;28;20030;-45
2021/01/13 07:49:17;;;;;;;3.80;1.30;;;20.40;31.50;;;;;;4988927;28;20027;-42
2021/01/13 07:51:53;;;;;;;7.75;2.13;;;20.40;31.60;;;;;;4990616;28;20109;-50
2021/01/13 07:54:32;;;;;;;4.05;1.60;;;20.40;31.80;;;;;;4973162;28;20042;-48
2021/01/13 07:57:00;;;;;;;5.07;1.60;;;20.40;32.00;;;;;;4994851;28;20330;-50
2021/01/13 07:59:41;;;;;;;4.28;1.60;;;20.50;32.30;;;;;;4995565;28;20042;-47
2021/01/13 08:02:44;;;;;;;5.03;1.40;;;20.60;32.50;;;;;;4994219;28;20038;-52
2021/01/13 08:05:33;;;;;;;3.58;1.20;;;20.70;32.50;;;;;;4995571;28;20429;-56
2021/01/13 08:08:11;;;;;;;5.15;1.40;;;20.80;32.50;;;;;;4994674;28;20046;-51
2021/01/13 08:10:39;;;;;;;3.58;1.40;;;21.00;32.50;;;;;;4993125;28;20034;-49
2021/01/13 08:13:38;;;;;;;4.15;1.58;;;21.00;32.50;;;;;;4995569;28;20437;-46
2021/01/13 08:16:45;;;;;;;3.85;1.20;;;21.20;32.40;;;;;;4992694;28;21189;-46
2021/01/13 08:19:35;;;;;;;6.88;1.75;;;21.30;32.30;;;;;;4989934;28;20049;-57
2021/01/13 08:22:03;;;;;;;5.95;1.60;;;21.40;32.40;;;;;;4993281;28;20472;-54
2021/01/13 08:24:30;;;;;;;4.50;1.58;;;21.60;32.40;;;;;;4994271;28;20037;-50
2021/01/13 08:27:00;;;;;;;7.97;2.05;;;21.70;32.20;;;;;;4976294;28;20038;-46
2021/01/13 08:29:36;;;;;;;5.45;1.75;;;21.90;32.10;;;;;;4992005;28;20091;-55
2021/01/13 08:32:12;;;;;;;4.68;1.75;;;22.00;31.90;;;;;;4975586;28;20026;-50
2021/01/13 08:34:44;;;;;;;4.90;1.50;;;22.30;31.60;;;;;;4993959;28;20350;-52
2021/01/13 08:37:11;;;;;;;6.85;1.90;;;22.50;31.40;;;;;;4994043;28;20041;-48
2021/01/13 08:39:38;;;;;;;4.20;1.40;;;22.70;31.10;;;;;;4993951;28;20053;-47
2021/01/13 08:42:24;;;;;;;4.43;1.50;;;22.90;30.90;;;;;;4995053;28;20037;-55
2021/01/13 08:44:52;;;;;;;5.00;1.70;;;23.10;30.60;;;;;;4987948;28;20039;-53
2021/01/13 08:47:19;;;;;;;4.45;1.40;;;23.30;30.40;;;;;;4985293;28;20027;-44
2021/01/13 08:49:45;;;;;;;3.97;1.45;;;23.40;30.10;;;;;;4986284;28;20550;-45
2021/01/13 08:52:21;;;;;;;4.75;1.67;;;23.50;30.00;;;;;;4984036;28;20038;-46
2021/01/13 08:54:56;;;;;;;3.20;1.20;;;23.60;29.80;;;;;;4987862;28;20057;-45
2021/01/13 08:57:25;;;;;;;4.82;1.38;;;23.70;29.70;;;;;;4986755;28;20030;-46
2021/01/13 08:59:52;;;;;;;5.68;1.65;;;23.70;29.60;;;;;;4984166;28;20096;-47
2021/01/13 09:02:23;;;;;;;3.17;1.50;;;23.70;29.50;;;;;;4984639;28;20401;-44
2021/01/13 09:04:56;;;;;;;6.45;1.50;;;23.70;29.50;;;;;;4987901;28;20037;-45
2021/01/13 09:07:29;;;;;;;3.83;1.63;;;23.80;29.50;;;;;;4983274;28;20334;-49
2021/01/13 09:10:11;;;;;;;3.57;1.37;;;23.80;29.40;;;;;;4983436;28;20038;-46
2021/01/13 09:12:42;;;;;;;3.13;1.13;;;23.80;29.40;;;;;;4984476;28;20061;-44
2021/01/13 09:15:08;;;;;;;4.22;1.50;;;23.80;29.30;;;;;;4995181;28;20026;-44
2021/01/13 09:17:39;;;;;;;5.13;1.73;;;23.80;29.30;;;;;;4994957;28;20397;-44
2021/01/13 09:20:07;;;;;;;3.58;1.25;;;23.90;29.30;;;;;;4995300;28;20037;-46
2021/01/13 09:22:55;;;;;;;4.85;1.80;;;23.90;29.20;;;;;;4992903;28;20073;-45
2021/01/13 09:25:26;;;;;;;5.63;1.80;;;23.90;29.20;;;;;;4991225;28;20497;-46
2021/01/13 09:28:00;;;;;;;3.75;1.35;;;23.90;29.20;;;;;;4988603;28;20096;-48
2021/01/13 09:30:29;;;;;;;4.93;1.30;;;24.00;29.20;;;;;;4988339;28;20040;-45
2021/01/13 09:32:57;;;;;;;3.95;1.30;;;24.00;29.20;;;;;;4983565;28;20038;-45
2021/01/13 09:35:27;;;;;;;4.57;1.90;;;24.00;29.60;;;;;;4985887;28;20084;-44
2021/01/13 09:37:58;;;;;;;5.05;1.35;;;24.00;29.10;;;;;;4984986;28;20073;-47
2021/01/13 09:40:54;;;;;;;4.25;1.42;;;24.00;29.10;;;;;;4968449;28;20042;-48
2021/01/13 09:43:31;;;;;;;3.38;1.17;;;24.10;29.10;;;;;;4985420;28;20335;-45
2021/01/13 09:46:04;;;;;;;3.63;1.20;;;24.10;29.00;;;;;;4987359;28;20090;-44
2021/01/13 09:48:32;;;;;;;3.28;1.30;;;24.10;28.90;;;;;;4985589;28;20157;-42
2021/01/13 09:51:11;;;;;;;4.40;1.42;;;24.10;28.80;;;;;;4983199;28;20041;-44
2021/01/13 09:53:48;;;;;;;4.25;1.80;;;24.20;28.80;;;;;;4984254;28;20040;-46
2021/01/13 09:56:15;;;;;;;3.80;1.30;;;24.10;28.70;;;;;;4983481;28;20033;-44
2021/01/13 09:58:46;;;;;;;3.30;1.10;;;24.10;28.60;;;;;;4983635;28;20038;-44
2021/01/13 10:01:26;;;;;;;4.05;1.30;;;24.10;28.60;;;;;;4984986;28;20054;-42
2021/01/13 10:03:57;;;;;;;3.75;1.33;;;24.10;28.60;;;;;;4984442;28;20053;-44
2021/01/13 10:06:30;;;;;;;2.92;1.27;;;24.10;28.50;;;;;;4982895;28;20038;-43
2021/01/13 10:08:58;;;;;;;3.53;1.17;;;24.00;28.50;;;;;;4983382;28;20112;-42
2021/01/13 10:11:26;;;;;;;2.95;1.30;;;24.00;28.50;;;;;;4984293;28;20366;-42
2021/01/13 10:14:04;;;;;;;3.22;1.30;;;24.00;28.60;;;;;;4984608;28;20078;-46
2021/01/13 10:16:32;;;;;;;3.08;1.10;;;24.00;28.60;;;;;;4986713;28;20046;-43
2021/01/13 10:18:59;;;;;;;3.10;1.38;;;23.90;28.60;;;;;;4985836;28;20022;-43
2021/01/13 10:21:35;;;;;;;2.90;1.10;;;23.90;28.50;;;;;;4978321;28;20061;-43
2021/01/13 10:24:09;;;;;;;2.92;1.20;;;23.90;28.50;;;;;;4994087;28;20118;-44
2021/01/13 10:26:38;;;;;;;2.90;0.98;;;23.90;28.50;;;;;;4995260;28;20085;-45
2021/01/13 10:29:05;;;;;;;3.13;1.10;;;23.80;28.40;;;;;;4994825;28;20030;-43
2021/01/13 10:31:32;;;;;;;3.80;1.20;;;23.80;28.40;;;;;;4994777;28;20046;-42
2021/01/13 10:33:58;;;;;;;2.70;1.10;;;23.80;28.40;;;;;;4994824;28;20133;-45
2021/01/13 10:36:33;;;;;;;2.15;0.98;;;23.80;28.50;;;;;;4995014;28;20034;-43
2021/01/13 10:38:59;;;;;;;3.55;1.00;;;23.70;28.40;;;;;;4994528;28;20034;-46
2021/01/13 10:41:37;;;;;;;2.80;1.38;;;23.70;28.50;;;;;;4995270;28;20322;-45
2021/01/13 10:44:28;;;;;;;3.13;1.00;;;23.70;28.50;;;;;;4994340;28;20061;-42
2021/01/13 10:47:00;;;;;;;4.07;1.50;;;23.70;28.50;;;;;;4989430;28;20377;-41
2021/01/13 10:49:35;;;;;;;2.85;1.17;;;23.60;28.50;;;;;;4994650;28;20034;-43
2021/01/13 10:52:05;;;;;;;3.58;1.20;;;23.60;28.50;;;;;;4994673;28;20062;-43
2021/01/13 10:54:33;;;;;;;2.58;0.95;;;23.60;28.60;;;;;;4994407;28;20038;-44
2021/01/13 10:57:05;;;;;;;4.47;0.98;;;23.60;28.50;;;;;;4994579;28;20121;-44
2021/01/13 10:59:31;;;;;;;2.92;1.00;;;23.50;28.50;;;;;;4994497;28;20026;-45
2021/01/13 11:02:06;;;;;;;2.90;0.90;;;23.50;28.50;;;;;;4994552;28;20030;-42
2021/01/13 11:04:39;;;;;;;2.15;1.10;;;23.50;28.50;;;;;;4994701;28;20030;-42
2021/01/13 11:07:08;;;;;;;3.85;1.17;;;23.50;28.50;;;;;;4978334;28;20045;-42
2021/01/13 11:09:36;;;;;;;2.33;1.00;;;23.50;29.10;;;;;;4998271;28;20061;-43
2021/01/13 11:12:02;;;;;;;3.92;1.02;;;23.40;28.50;;;;;;4998053;28;20042;-44
2021/01/13 11:14:34;;;;;;;2.38;0.80;;;23.50;28.60;;;;;;4980685;28;20053;-43
2021/01/13 11:17:04;;;;;;;2.67;1.02;;;23.40;28.50;;;;;;4994957;28;20080;-44
2021/01/13 11:19:32;;;;;;;3.63;1.30;;;23.40;28.60;;;;;;4995198;28;20385;-43
2021/01/13 11:21:58;;;;;;;2.55;1.10;;;23.40;28.60;;;;;;4995837;28;20121;-43
2021/01/13 11:24:48;;;;;;;4.40;1.33;;;23.40;28.60;;;;;;4997931;28;20134;-44
2021/01/13 11:27:23;;;;;;;2.10;1.00;;;23.40;28.50;;;;;;4995432;28;20473;-44
2021/01/13 11:29:53;;;;;;;2.38;0.98;;;23.40;28.50;;;;;;5000286;28;20109;-44
2021/01/13 11:32:22;;;;;;;3.30;1.05;;;23.40;28.50;;;;;;4994242;28;20045;-43
2021/01/13 11:34:53;;;;;;;3.25;1.00;;;23.40;28.50;;;;;;4995571;28;20034;-44
2021/01/13 11:37:40;;;;;;;2.28;0.88;;;23.40;28.50;;;;;;5004201;28;20041;-45
2021/01/13 11:41:10;;;;;;;3.00;0.85;;;23.40;28.50;;;;;;4996132;28;20042;-45
2021/01/13 11:43:38;;;;;;;3.25;1.00;;;23.40;28.50;;;;;;4931474;29;20562;-44
2021/01/13 11:46:13;;;;;;;3.17;1.23;;;23.40;28.60;;;;;;4995146;28;20672;-43
2021/01/13 11:48:55;;;;;;;3.22;1.25;;;23.40;28.60;;;;;;4979262;28;20049;-43
2021/01/13 11:51:22;;;;;;;3.15;1.25;;;23.30;28.60;;;;;;4994559;28;20088;-42
2021/01/13 11:53:48;;;;;;;4.03;1.08;;;23.30;28.60;;;;;;4995399;28;20121;-44
2021/01/13 11:56:30;;;;;;;2.08;0.90;;;23.30;28.60;;;;;;4996889;28;20413;-43
2021/01/13 11:58:56;;;;;;;3.30;1.20;;;23.40;28.60;;;;;;5001019;28;20451;-45
2021/01/13 12:01:25;;;;;;;3.38;1.05;;;23.30;28.60;;;;;;4995046;28;20038;-43
2021/01/13 12:04:01;;;;;;;3.70;0.90;;;23.30;28.60;;;;;;4978690;28;20113;-42
2021/01/13 12:06:27;;;;;;;2.85;1.10;;;23.30;28.70;;;;;;4995380;28;20109;-42
2021/01/13 12:08:53;;;;;;;3.42;0.90;;;23.30;28.70;;;;;;4995523;28;20030;-41
2021/01/13 12:11:21;;;;;;;3.67;1.00;;;23.30;28.80;;;;;;4995252;28;20101;-47
2021/01/13 12:13:47;;;;;;;3.03;0.98;;;23.30;28.80;;;;;;4995147;28;20706;-42
2021/01/13 12:16:18;;;;;;;3.28;0.88;;;23.30;28.80;;;;;;4995235;28;20038;-46
2021/01/13 12:18:53;;;;;;;4.78;1.00;;;23.30;28.80;;;;;;4994527;28;20438;-44
2021/01/13 12:21:21;;;;;;;3.42;1.00;;;23.30;28.90;;;;;;4993206;28;20100;-41
2021/01/13 12:23:48;;;;;;;2.35;1.10;;;23.30;28.90;;;;;;4995958;28;20260;-48
2021/01/13 12:26:30;;;;;;;2.58;1.00;;;23.30;28.80;;;;;;4995278;28;20037;-44
2021/01/13 12:29:03;;;;;;;2.72;0.85;;;23.30;28.90;;;;;;4993701;28;20117;-46
2021/01/13 12:31:48;;;;;;;4.78;1.77;;;23.30;28.90;;;;;;4993084;28;20041;-46
2021/01/13 12:34:21;;;;;;;2.60;1.00;;;23.30;29.00;;;;;;5006148;28;20041;-44
2021/01/13 12:36:48;;;;;;;3.40;0.90;;;23.30;28.90;;;;;;4993387;28;20433;-44
2021/01/13 12:39:28;;;;;;;2.03;0.80;;;23.30;28.90;;;;;;4994942;28;20359;-45
2021/01/13 12:41:55;;;;;;;3.05;1.17;;;23.30;28.80;;;;;;4992264;28;20081;-45
2021/01/13 12:44:22;;;;;;;2.40;0.95;;;23.30;28.80;;;;;;4995004;28;20034;-44
2021/01/13 12:46:53;;;;;;;1.70;0.70;;;23.30;28.80;;;;;;4994476;28;20113;-44
2021/01/13 12:49:20;;;;;;;2.20;1.02;;;23.30;28.70;;;;;;4993683;28;20315;-64
2021/01/13 12:51:51;;;;;;;2.53;0.90;;;23.30;28.70;;;;;;4992739;28;20393;-47
2021/01/13 12:54:17;;;;;;;3.85;1.10;;;23.30;28.70;;;;;;4993553;28;20066;-46
2021/01/13 12:56:43;;;;;;;2.80;0.80;;;23.20;28.70;;;;;;4992051;28;20409;-52
2021/01/13 12:59:09;;;;;;;2.92;0.80;;;23.30;28.80;;;;;;4994067;28;20464;-47
2021/01/13 13:01:43;;;;;;;2.10;1.02;;;23.30;28.80;;;;;;4993394;28;20101;-55
2021/01/13 13:04:09;;;;;;;;;;;23.30;28.90;;;;;;4995351;28;20468;-53
2021/01/13 13:06:36;;;;;;;3.28;1.15;;;23.30;29.00;;;;;;4993089;28;19921;-55
2021/01/13 13:09:07;;;;;;;3.40;0.80;;;23.30;29.10;;;;;;4995194;28;20054;-56
2021/01/13 13:11:34;;;;;;;2.88;0.82;;;23.30;29.40;;;;;;4994545;28;20100;-56
2021/01/13 13:14:00;;;;;;;2.97;0.73;;;23.30;29.60;;;;;;4986469;28;20089;-45